sensor_id;sensor_type;location;lat;lon;timestamp;pressure;altitude;pressure_sealevel;temperature;humidity
2405;BME280;1213;43.206;27.922;2024-03-08T00:02:23;101733.44;;;7.70;100.00
2405;BME280;1213;43.206;27.922;2024-03-08T00:04:48;101725.59;;;7.70;100.00
2405;BME280;1213;43.206;27.922;2024-03-08T00:07:14;101720.72;;;7.61;100.00
2405;BME280;1213;43.206;27.922;2024-03-08T00:09:39;101718.97;;;7.61;100.00
2405;BME280;1213;43.206;27.922;2024-03-08T00:12:05;101717.19;;;7.62;100.00
2405;BME280;1213;43.206;27.922;2024-03-08T00:14:31;101712.19;;;7.56;100.00
2405;BME280;1213;43.206;27.922;2024-03-08T00:16:57;101702.44;;;7.61;100.00
2405;BME280;1213;43.206;27.922;2024-03-08T00:19:23;101699.03;;;7.59;100.00
2405;BME280;1213;43.206;27.922;2024-03-08T00:21:48;101692.16;;;7.56;100.00
2405;BME280;1213;43.206;27.922;2024-03-08T00:24:14;101687.94;;;7.52;100.00
2405;BME280;1213;43.206;27.922;2024-03-08T00:26:39;101690.63;;;7.50;100.00
2405;BME280;1213;43.206;27.922;2024-03-08T00:29:04;101693.63;;;7.40;100.00
2405;BME280;1213;43.206;27.922;2024-03-08T00:31:30;101691.00;;;7.41;100.00
2405;BME280;1213;43.206;27.922;2024-03-08T00:33:58;101688.31;;;7.43;100.00
2405;BME280;1213;43.206;27.922;2024-03-08T00:36:24;101684.16;;;7.37;100.00
2405;BME280;1213;43.206;27.922;2024-03-08T00:38:50;101678.25;;;7.32;100.00
2405;BME280;1213;43.206;27.922;2024-03-08T00:41:15;101682.75;;;7.29;100.00
2405;BME280;1213;43.206;27.922;2024-03-08T00:43:41;101683.97;;;7.20;100.00
2405;BME280;1213;43.206;27.922;2024-03-08T00:46:06;101681.34;;;7.20;100.00
2405;BME280;1213;43.206;27.922;2024-03-08T00:48:31;101681.44;;;7.17;100.00
2405;BME280;1213;43.206;27.922;2024-03-08T00:50:57;101681.44;;;7.17;100.00
2405;BME280;1213;43.206;27.922;2024-03-08T00:53:22;101681.63;;;7.12;100.00
2405;BME280;1213;43.206;27.922;2024-03-08T00:55:48;101681.69;;;7.11;100.00
2405;BME280;1213;43.206;27.922;2024-03-08T00:58:14;101681.69;;;7.11;100.00
2405;BME280;1213;43.206;27.922;2024-03-08T01:00:39;101679.97;;;7.10;100.00
2405;BME280;1213;43.206;27.922;2024-03-08T01:03:05;101687.88;;;7.08;100.00
2405;BME280;1213;43.206;27.922;2024-03-08T01:05:30;101687.88;;;7.08;100.00
2405;BME280;1213;43.206;27.922;2024-03-08T01:07:56;101687.81;;;7.10;100.00
2405;BME280;1213;43.206;27.922;2024-03-08T01:10:22;101683.63;;;7.06;100.00
2405;BME280;1213;43.206;27.922;2024-03-08T01:12:49;101681.06;;;7.04;100.00
2405;BME280;1213;43.206;27.922;2024-03-08T01:15:15;101684.59;;;7.03;100.00
2405;BME280;1213;43.206;27.922;2024-03-08T01:17:40;101678.59;;;7.00;100.00
2405;BME280;1213;43.206;27.922;2024-03-08T01:20:07;101676.91;;;6.99;100.00
2405;BME280;1213;43.206;27.922;2024-03-08T01:22:41;101679.41;;;7.02;100.00
2405;BME280;1213;43.206;27.922;2024-03-08T01:25:07;101675.28;;;6.96;100.00
2405;BME280;1213;43.206;27.922;2024-03-08T01:27:33;101671.00;;;6.93;100.00
2405;BME280;1213;43.206;27.922;2024-03-08T01:30:00;101673.66;;;6.92;100.00
2405;BME280;1213;43.206;27.922;2024-03-08T01:32:26;101682.13;;;6.99;100.00
2405;BME280;1213;43.206;27.922;2024-03-08T01:34:53;101678.09;;;6.90;100.00
2405;BME280;1213;43.206;27.922;2024-03-08T01:37:18;101691.22;;;6.88;100.00
2405;BME280;1213;43.206;27.922;2024-03-08T01:39:45;101691.22;;;6.88;100.00
2405;BME280;1213;43.206;27.922;2024-03-08T01:42:10;101689.50;;;6.87;100.00
2405;BME280;1213;43.206;27.922;2024-03-08T01:44:41;101690.09;;;6.95;100.00
2405;BME280;1213;43.206;27.922;2024-03-08T01:47:09;101689.34;;;6.92;100.00
2405;BME280;1213;43.206;27.922;2024-03-08T01:49:37;101687.50;;;6.94;100.00
2405;BME280;1213;43.206;27.922;2024-03-08T01:52:03;101683.97;;;6.97;100.00
2405;BME280;1213;43.206;27.922;2024-03-08T01:54:29;101686.44;;;7.00;100.00
2405;BME280;1213;43.206;27.922;2024-03-08T01:56:57;101690.59;;;7.05;100.00
2405;BME280;1213;43.206;27.922;2024-03-08T01:59:24;101696.03;;;6.99;100.00
2405;BME280;1213;43.206;27.922;2024-03-08T02:01:50;101694.44;;;6.95;100.00
2405;BME280;1213;43.206;27.922;2024-03-08T02:04:16;101689.91;;;7.00;100.00
2405;BME280;1213;43.206;27.922;2024-03-08T02:06:42;101690.88;;;6.98;100.00
2405;BME280;1213;43.206;27.922;2024-03-08T02:09:07;101690.75;;;7.01;100.00
2405;BME280;1213;43.206;27.922;2024-03-08T02:11:35;101697.06;;;6.95;100.00
2405;BME280;1213;43.206;27.922;2024-03-08T02:14:01;101700.47;;;6.97;100.00
2405;BME280;1213;43.206;27.922;2024-03-08T02:16:27;101688.44;;;6.93;100.00
2405;BME280;1213;43.206;27.922;2024-03-08T02:18:53;101690.38;;;6.88;100.00
2405;BME280;1213;43.206;27.922;2024-03-08T02:21:18;101688.56;;;6.90;100.00
2405;BME280;1213;43.206;27.922;2024-03-08T02:23:44;101682.34;;;6.92;100.00
2405;BME280;1213;43.206;27.922;2024-03-08T02:26:10;101696.47;;;6.87;100.00
2405;BME280;1213;43.206;27.922;2024-03-08T02:28:36;101688.81;;;6.82;100.00
2405;BME280;1213;43.206;27.922;2024-03-08T02:31:02;101680.13;;;6.82;100.00
2405;BME280;1213;43.206;27.922;2024-03-08T02:33:33;101692.28;;;6.83;100.00
2405;BME280;1213;43.206;27.922;2024-03-08T02:35:59;101694.00;;;6.84;100.00
2405;BME280;1213;43.206;27.922;2024-03-08T02:38:25;101694.19;;;6.78;100.00
2405;BME280;1213;43.206;27.922;2024-03-08T02:40:51;101693.00;;;6.86;100.00
2405;BME280;1213;43.206;27.922;2024-03-08T02:43:18;101707.09;;;6.82;100.00
2405;BME280;1213;43.206;27.922;2024-03-08T02:45:44;101704.72;;;6.76;100.00
2405;BME280;1213;43.206;27.922;2024-03-08T02:48:14;101700.28;;;6.78;100.00
2405;BME280;1213;43.206;27.922;2024-03-08T02:50:42;101707.31;;;6.76;100.00
2405;BME280;1213;43.206;27.922;2024-03-08T02:53:09;101704.84;;;6.73;100.00
2405;BME280;1213;43.206;27.922;2024-03-08T02:55:35;101707.44;;;6.73;100.00
2405;BME280;1213;43.206;27.922;2024-03-08T02:58:02;101700.22;;;6.80;100.00
2405;BME280;1213;43.206;27.922;2024-03-08T03:00:28;101705.28;;;6.84;100.00
2405;BME280;1213;43.206;27.922;2024-03-08T03:02:57;101705.34;;;6.83;100.00
2405;BME280;1213;43.206;27.922;2024-03-08T03:05:26;101701.13;;;6.79;100.00
2405;BME280;1213;43.206;27.922;2024-03-08T03:07:51;101703.78;;;6.77;100.00
2405;BME280;1213;43.206;27.922;2024-03-08T03:10:17;101699.53;;;6.75;100.00
2405;BME280;1213;43.206;27.922;2024-03-08T03:12:44;101698.69;;;6.74;100.00
2405;BME280;1213;43.206;27.922;2024-03-08T03:15:12;101702.25;;;6.72;100.00
2405;BME280;1213;43.206;27.922;2024-03-08T03:17:39;101701.97;;;6.79;100.00
2405;BME280;1213;43.206;27.922;2024-03-08T03:20:08;101696.03;;;6.76;100.00
2405;BME280;1213;43.206;27.922;2024-03-08T03:22:48;101694.31;;;6.75;100.00
2405;BME280;1213;43.206;27.922;2024-03-08T03:25:21;101697.00;;;6.73;100.00
2405;BME280;1213;43.206;27.922;2024-03-08T03:27:54;101693.75;;;6.66;100.00
2405;BME280;1213;43.206;27.922;2024-03-08T03:30:23;101697.16;;;6.68;100.00
2405;BME280;1213;43.206;27.922;2024-03-08T03:32:51;101697.00;;;6.73;100.00
2405;BME280;1213;43.206;27.922;2024-03-08T03:35:18;101703.09;;;6.72;100.00
2405;BME280;1213;43.206;27.922;2024-03-08T03:37:44;101703.91;;;6.74;100.00
2405;BME280;1213;43.206;27.922;2024-03-08T03:40:17;101701.47;;;6.70;100.00
2405;BME280;1213;43.206;27.922;2024-03-08T03:42:44;101697.94;;;6.71;100.00
2405;BME280;1213;43.206;27.922;2024-03-08T03:45:11;101698.91;;;6.68;100.00
2405;BME280;1213;43.206;27.922;2024-03-08T03:47:36;101701.63;;;6.65;100.00
2405;BME280;1213;43.206;27.922;2024-03-08T03:50:04;101695.44;;;6.67;100.00
2405;BME280;1213;43.206;27.922;2024-03-08T03:52:30;101689.44;;;6.65;100.00
2405;BME280;1213;43.206;27.922;2024-03-08T03:54:57;101703.28;;;6.67;100.00
2405;BME280;1213;43.206;27.922;2024-03-08T03:57:23;101702.44;;;6.67;100.00
2405;BME280;1213;43.206;27.922;2024-03-08T03:59:48;101701.38;;;6.73;100.00
2405;BME280;1213;43.206;27.922;2024-03-08T04:02:14;101702.31;;;6.70;100.00
2405;BME280;1213;43.206;27.922;2024-03-08T04:04:40;101705.09;;;6.65;100.00
2405;BME280;1213;43.206;27.922;2024-03-08T04:07:05;101705.09;;;6.65;100.00
2405;BME280;1213;43.206;27.922;2024-03-08T04:09:31;101705.97;;;6.64;100.00
2405;BME280;1213;43.206;27.922;2024-03-08T04:11:56;101714.78;;;6.62;100.00
2405;BME280;1213;43.206;27.922;2024-03-08T04:14:25;101715.41;;;6.68;100.00
2405;BME280;1213;43.206;27.922;2024-03-08T04:16:51;101704.19;;;6.66;100.00
2405;BME280;1213;43.206;27.922;2024-03-08T04:19:18;101714.78;;;6.62;100.00
2405;BME280;1213;43.206;27.922;2024-03-08T04:21:44;101712.06;;;6.65;100.00
2405;BME280;1213;43.206;27.922;2024-03-08T04:24:09;101713.88;;;6.63;100.00
2405;BME280;1213;43.206;27.922;2024-03-08T04:26:36;101706.03;;;6.63;100.00
2405;BME280;1213;43.206;27.922;2024-03-08T04:29:01;101708.59;;;6.64;100.00
2405;BME280;1213;43.206;27.922;2024-03-08T04:31:26;101713.88;;;6.63;100.00
2405;BME280;1213;43.206;27.922;2024-03-08T04:33:52;101714.00;;;6.60;100.00
2405;BME280;1213;43.206;27.922;2024-03-08T04:36:18;101700.72;;;6.66;100.00
2405;BME280;1213;43.206;27.922;2024-03-08T04:38:46;101700.09;;;6.59;100.00
2405;BME280;1213;43.206;27.922;2024-03-08T04:41:11;101697.34;;;6.62;100.00
2405;BME280;1213;43.206;27.922;2024-03-08T04:43:37;101707.91;;;6.59;100.00
2405;BME280;1213;43.206;27.922;2024-03-08T04:46:02;101709.69;;;6.57;100.00
2405;BME280;1213;43.206;27.922;2024-03-08T04:48:29;101709.09;;;6.51;100.00
2405;BME280;1213;43.206;27.922;2024-03-08T04:50:54;101707.34;;;6.51;100.00
2405;BME280;1213;43.206;27.922;2024-03-08T04:53:21;101708.13;;;6.53;100.00
2405;BME280;1213;43.206;27.922;2024-03-08T04:55:46;101718.63;;;6.52;100.00
2405;BME280;1213;43.206;27.922;2024-03-08T04:58:13;101714.13;;;6.55;100.00
2405;BME280;1213;43.206;27.922;2024-03-08T05:00:39;101710.66;;;6.55;100.00
2405;BME280;1213;43.206;27.922;2024-03-08T05:03:05;101716.81;;;6.54;100.00
2405;BME280;1213;43.206;27.922;2024-03-08T05:05:31;101717.78;;;6.50;100.00
2405;BME280;1213;43.206;27.922;2024-03-08T05:07:56;101723.53;;;6.61;100.00
2405;BME280;1213;43.206;27.922;2024-03-08T05:10:22;101722.56;;;6.63;100.00
2405;BME280;1213;43.206;27.922;2024-03-08T05:12:48;101721.03;;;6.58;100.00
2405;BME280;1213;43.206;27.922;2024-03-08T05:15:14;101730.56;;;6.59;100.00
2405;BME280;1213;43.206;27.922;2024-03-08T05:17:39;101728.88;;;6.58;100.00
2405;BME280;1213;43.206;27.922;2024-03-08T05:20:06;101728.81;;;6.59;100.00
2405;BME280;1213;43.206;27.922;2024-03-08T05:22:37;101728.59;;;6.65;100.00
2405;BME280;1213;43.206;27.922;2024-03-08T05:25:03;101730.50;;;6.60;100.00
2405;BME280;1213;43.206;27.922;2024-03-08T05:27:29;101740.81;;;6.63;100.00
2405;BME280;1213;43.206;27.922;2024-03-08T05:29:54;101733.69;;;6.68;100.00
2405;BME280;1213;43.206;27.922;2024-03-08T05:32:19;101739.50;;;6.77;100.00
2405;BME280;1213;43.206;27.922;2024-03-08T05:34:45;101738.91;;;6.68;100.00
2405;BME280;1213;43.206;27.922;2024-03-08T05:37:10;101739.84;;;6.67;100.00
2405;BME280;1213;43.206;27.922;2024-03-08T05:39:36;101739.72;;;6.71;100.00
2405;BME280;1213;43.206;27.922;2024-03-08T05:42:02;101748.97;;;6.81;100.00
2405;BME280;1213;43.206;27.922;2024-03-08T05:44:28;101745.50;;;6.80;100.00
2405;BME280;1213;43.206;27.922;2024-03-08T05:46:55;101749.25;;;6.72;100.00
2405;BME280;1213;43.206;27.922;2024-03-08T05:49:21;101752.50;;;6.78;100.00
2405;BME280;1213;43.206;27.922;2024-03-08T05:51:46;101758.81;;;6.73;100.00
2405;BME280;1213;43.206;27.922;2024-03-08T05:54:13;101752.78;;;6.71;100.00
2405;BME280;1213;43.206;27.922;2024-03-08T05:56:39;101759.59;;;6.75;100.00
2405;BME280;1213;43.206;27.922;2024-03-08T05:59:08;101755.38;;;6.71;100.00
2405;BME280;1213;43.206;27.922;2024-03-08T06:01:34;101764.03;;;6.73;100.00
2405;BME280;1213;43.206;27.922;2024-03-08T06:04:02;101764.78;;;6.76;100.00
2405;BME280;1213;43.206;27.922;2024-03-08T06:06:28;101757.59;;;6.83;100.00
2405;BME280;1213;43.206;27.922;2024-03-08T06:08:53;101764.38;;;6.87;100.00
2405;BME280;1213;43.206;27.922;2024-03-08T06:11:21;101766.38;;;6.80;100.00
2405;BME280;1213;43.206;27.922;2024-03-08T06:13:48;101773.06;;;6.87;100.00
2405;BME280;1213;43.206;27.922;2024-03-08T06:16:14;101779.38;;;6.82;100.00
2405;BME280;1213;43.206;27.922;2024-03-08T06:18:39;101766.16;;;6.86;100.00
2405;BME280;1213;43.206;27.922;2024-03-08T06:21:06;101773.31;;;6.81;100.00
2405;BME280;1213;43.206;27.922;2024-03-08T06:23:32;101776.59;;;6.86;100.00
2405;BME280;1213;43.206;27.922;2024-03-08T06:25:58;101777.19;;;6.94;100.00
2405;BME280;1213;43.206;27.922;2024-03-08T06:28:24;101775.59;;;6.90;100.00
2405;BME280;1213;43.206;27.922;2024-03-08T06:30:49;101779.91;;;6.91;100.00
2405;BME280;1213;43.206;27.922;2024-03-08T06:33:17;101785.78;;;6.98;100.00
2405;BME280;1213;43.206;27.922;2024-03-08T06:35:42;101779.00;;;6.92;100.00
2405;BME280;1213;43.206;27.922;2024-03-08T06:38:08;101775.47;;;6.93;100.00
2405;BME280;1213;43.206;27.922;2024-03-08T06:40:33;101782.19;;;7.01;100.00
2405;BME280;1213;43.206;27.922;2024-03-08T06:42:58;101786.38;;;7.06;100.00
2405;BME280;1213;43.206;27.922;2024-03-08T06:45:24;101783.06;;;7.01;100.00
2405;BME280;1213;43.206;27.922;2024-03-08T06:47:51;101789.81;;;7.07;100.00
2405;BME280;1213;43.206;27.922;2024-03-08T06:50:17;101776.38;;;7.17;100.00
2405;BME280;1213;43.206;27.922;2024-03-08T06:52:42;101783.84;;;7.28;100.00
2405;BME280;1213;43.206;27.922;2024-03-08T06:55:10;101789.84;;;7.30;100.00
2405;BME280;1213;43.206;27.922;2024-03-08T06:57:39;101787.16;;;7.33;100.00
2405;BME280;1213;43.206;27.922;2024-03-08T07:00:09;101785.78;;;7.46;100.00
2405;BME280;1213;43.206;27.922;2024-03-08T07:02:37;101786.59;;;7.48;100.00
2405;BME280;1213;43.206;27.922;2024-03-08T07:05:05;101784.97;;;7.68;100.00
2405;BME280;1213;43.206;27.922;2024-03-08T07:07:35;101776.91;;;7.74;100.00
2405;BME280;1213;43.206;27.922;2024-03-08T07:10:01;101778.16;;;7.87;100.00
2405;BME280;1213;43.206;27.922;2024-03-08T07:12:26;101777.88;;;7.93;100.00
2405;BME280;1213;43.206;27.922;2024-03-08T07:14:51;101786.19;;;8.04;100.00
2405;BME280;1213;43.206;27.922;2024-03-08T07:17:17;101781.19;;;8.20;100.00
2405;BME280;1213;43.206;27.922;2024-03-08T07:19:42;101777.84;;;8.17;100.00
2405;BME280;1213;43.206;27.922;2024-03-08T07:22:08;101781.19;;;8.20;100.00
2405;BME280;1213;43.206;27.922;2024-03-08T07:24:37;101780.19;;;8.23;100.00
2405;BME280;1213;43.206;27.922;2024-03-08T07:27:23;101787.94;;;8.26;100.00
2405;BME280;1213;43.206;27.922;2024-03-08T07:29:48;101779.03;;;8.30;100.00
2405;BME280;1213;43.206;27.922;2024-03-08T07:32:14;101779.25;;;8.25;100.00
2405;BME280;1213;43.206;27.922;2024-03-08T07:34:50;101785.72;;;8.17;100.00
2405;BME280;1213;43.206;27.922;2024-03-08T07:37:17;101781.03;;;8.23;100.00
2405;BME280;1213;43.206;27.922;2024-03-08T07:39:43;101785.72;;;8.17;100.00
2405;BME280;1213;43.206;27.922;2024-03-08T07:42:11;101798.25;;;8.09;100.00
2405;BME280;1213;43.206;27.922;2024-03-08T07:44:37;101793.13;;;8.05;100.00
2405;BME280;1213;43.206;27.922;2024-03-08T07:47:03;101786.41;;;7.98;100.00
2405;BME280;1213;43.206;27.922;2024-03-08T07:49:29;101785.25;;;8.05;100.00
2405;BME280;1213;43.206;27.922;2024-03-08T07:51:57;101780.47;;;8.17;100.00
2405;BME280;1213;43.206;27.922;2024-03-08T07:54:23;101785.94;;;8.32;100.00
2405;BME280;1213;43.206;27.922;2024-03-08T07:56:48;101783.22;;;8.36;100.00
2405;BME280;1213;43.206;27.922;2024-03-08T07:59:15;101782.66;;;8.49;100.00
2405;BME280;1213;43.206;27.922;2024-03-08T08:01:41;101781.69;;;8.72;100.00
2405;BME280;1213;43.206;27.922;2024-03-08T08:04:06;101775.94;;;8.84;100.00
2405;BME280;1213;43.206;27.922;2024-03-08T08:06:35;101772.38;;;9.06;100.00
2405;BME280;1213;43.206;27.922;2024-03-08T08:09:03;101779.00;;;9.14;100.00
2405;BME280;1213;43.206;27.922;2024-03-08T08:11:28;101780.38;;;9.23;100.00
2405;BME280;1213;43.206;27.922;2024-03-08T08:13:54;101779.28;;;9.08;100.00
2405;BME280;1213;43.206;27.922;2024-03-08T08:16:22;101769.91;;;9.03;100.00
2405;BME280;1213;43.206;27.922;2024-03-08T08:18:48;101775.06;;;9.04;100.00
2405;BME280;1213;43.206;27.922;2024-03-08T08:21:13;101792.50;;;9.05;100.00
2405;BME280;1213;43.206;27.922;2024-03-08T08:23:39;101782.47;;;9.15;100.00
2405;BME280;1213;43.206;27.922;2024-03-08T08:26:06;101786.41;;;9.05;100.00
2405;BME280;1213;43.206;27.922;2024-03-08T08:28:33;101780.91;;;9.11;100.00
2405;BME280;1213;43.206;27.922;2024-03-08T08:30:58;101780.53;;;9.00;100.00
2405;BME280;1213;43.206;27.922;2024-03-08T08:33:25;101770.16;;;9.17;100.00
2405;BME280;1213;43.206;27.922;2024-03-08T08:35:50;101777.00;;;9.20;100.00
2405;BME280;1213;43.206;27.922;2024-03-08T08:38:19;101775.81;;;9.27;100.00
2405;BME280;1213;43.206;27.922;2024-03-08T08:40:45;101780.66;;;9.36;100.00
2405;BME280;1213;43.206;27.922;2024-03-08T08:43:12;101778.25;;;9.50;100.00
2405;BME280;1213;43.206;27.922;2024-03-08T08:45:38;101787.19;;;9.65;100.00
2405;BME280;1213;43.206;27.922;2024-03-08T08:48:04;101780.59;;;9.94;100.00
2405;BME280;1213;43.206;27.922;2024-03-08T08:50:30;101785.16;;;9.90;100.00
2405;BME280;1213;43.206;27.922;2024-03-08T08:52:56;101780.75;;;9.91;100.00
2405;BME280;1213;43.206;27.922;2024-03-08T08:55:22;101780.03;;;10.06;100.00
2405;BME280;1213;43.206;27.922;2024-03-08T08:57:51;101793.84;;;10.10;100.00
2405;BME280;1213;43.206;27.922;2024-03-08T09:00:21;101791.09;;;9.94;100.00
2405;BME280;1213;43.206;27.922;2024-03-08T09:02:47;101787.75;;;10.09;100.00
2405;BME280;1213;43.206;27.922;2024-03-08T09:05:16;101785.78;;;9.95;100.00
2405;BME280;1213;43.206;27.922;2024-03-08T09:07:45;101786.91;;;10.09;100.00
2405;BME280;1213;43.206;27.922;2024-03-08T09:10:10;101789.38;;;10.31;100.00
2405;BME280;1213;43.206;27.922;2024-03-08T09:12:40;101790.78;;;10.38;100.00
2405;BME280;1213;43.206;27.922;2024-03-08T09:15:06;101787.91;;;10.42;100.00
2405;BME280;1213;43.206;27.922;2024-03-08T09:17:37;101784.22;;;10.29;100.00
2405;BME280;1213;43.206;27.922;2024-03-08T09:20:06;101782.44;;;10.30;100.00
2405;BME280;1213;43.206;27.922;2024-03-08T09:22:31;101790.00;;;10.36;100.00
2405;BME280;1213;43.206;27.922;2024-03-08T09:24:57;101787.31;;;10.37;100.00
2405;BME280;1213;43.206;27.922;2024-03-08T09:27:22;101795.56;;;10.30;100.00
2405;BME280;1213;43.206;27.922;2024-03-08T09:29:48;101798.41;;;10.06;100.00
2405;BME280;1213;43.206;27.922;2024-03-08T09:32:14;101796.63;;;10.07;100.00
2405;BME280;1213;43.206;27.922;2024-03-08T09:34:39;101791.94;;;10.13;100.00
2405;BME280;1213;43.206;27.922;2024-03-08T09:37:05;101800.59;;;10.15;100.00
2405;BME280;1213;43.206;27.922;2024-03-08T09:39:31;101800.44;;;10.18;100.00
2405;BME280;1213;43.206;27.922;2024-03-08T09:41:58;101795.19;;;10.37;100.00
2405;BME280;1213;43.206;27.922;2024-03-08T09:44:24;101800.31;;;10.21;100.00
2405;BME280;1213;43.206;27.922;2024-03-08T09:46:50;101800.34;;;10.20;100.00
2405;BME280;1213;43.206;27.922;2024-03-08T09:49:18;101794.00;;;10.25;100.00
2405;BME280;1213;43.206;27.922;2024-03-08T09:51:43;101801.03;;;10.25;100.00
2405;BME280;1213;43.206;27.922;2024-03-08T09:54:09;101793.31;;;10.39;100.00
2405;BME280;1213;43.206;27.922;2024-03-08T09:56:35;101793.41;;;10.55;100.00
2405;BME280;1213;43.206;27.922;2024-03-08T09:59:01;101790.66;;;10.75;100.00
2405;BME280;1213;43.206;27.922;2024-03-08T10:01:46;101782.97;;;10.88;100.00
2405;BME280;1213;43.206;27.922;2024-03-08T10:04:11;101789.94;;;11.06;100.00
2405;BME280;1213;43.206;27.922;2024-03-08T10:06:39;101793.00;;;11.15;100.00
2405;BME280;1213;43.206;27.922;2024-03-08T10:09:04;101795.22;;;10.89;100.00
2405;BME280;1213;43.206;27.922;2024-03-08T10:11:34;101795.28;;;11.05;100.00
2405;BME280;1213;43.206;27.922;2024-03-08T10:14:01;101793.94;;;11.14;100.00
2405;BME280;1213;43.206;27.922;2024-03-08T10:16:27;101781.41;;;11.19;100.00
2405;BME280;1213;43.206;27.922;2024-03-08T10:18:57;101786.13;;;11.12;100.00
2405;BME280;1213;43.206;27.922;2024-03-08T10:21:22;101787.78;;;10.97;100.00
2405;BME280;1213;43.206;27.922;2024-03-08T10:23:48;101783.06;;;10.87;100.00
2405;BME280;1213;43.206;27.922;2024-03-08T10:26:17;101794.06;;;10.60;100.00
2405;BME280;1213;43.206;27.922;2024-03-08T10:28:45;101798.84;;;10.52;100.00
2405;BME280;1213;43.206;27.922;2024-03-08T10:31:10;101799.03;;;10.30;100.00
2405;BME280;1213;43.206;27.922;2024-03-08T10:33:37;101791.31;;;10.08;100.00
2405;BME280;1213;43.206;27.922;2024-03-08T10:36:10;101796.16;;;9.98;100.00
2405;BME280;1213;43.206;27.922;2024-03-08T10:38:42;101798.06;;;9.95;100.00
2405;BME280;1213;43.206;27.922;2024-03-08T10:41:15;101802.81;;;9.68;100.00
2405;BME280;1213;43.206;27.922;2024-03-08T10:44:10;101795.56;;;9.54;100.00
2405;BME280;1213;43.206;27.922;2024-03-08T10:47:03;101807.94;;;9.32;100.00
2405;BME280;1213;43.206;27.922;2024-03-08T10:52:42;101798.13;;;9.16;100.00
2405;BME280;1213;43.206;27.922;2024-03-08T10:55:09;101804.56;;;9.09;100.00
2405;BME280;1213;43.206;27.922;2024-03-08T10:57:38;101814.91;;;9.12;100.00
2405;BME280;1213;43.206;27.922;2024-03-08T11:00:06;101801.69;;;9.15;100.00
2405;BME280;1213;43.206;27.922;2024-03-08T11:02:35;101805.47;;;9.08;100.00
2405;BME280;1213;43.206;27.922;2024-03-08T11:05:01;101800.94;;;9.12;100.00
2405;BME280;1213;43.206;27.922;2024-03-08T11:07:34;101799.72;;;9.00;100.00
2405;BME280;1213;43.206;27.922;2024-03-08T11:10:03;101805.34;;;8.91;100.00
2405;BME280;1213;43.206;27.922;2024-03-08T11:12:37;101799.66;;;8.81;100.00
2405;BME280;1213;43.206;27.922;2024-03-08T11:15:10;101799.53;;;8.84;100.00
2405;BME280;1213;43.206;27.922;2024-03-08T11:20:14;101797.03;;;9.02;100.00
2405;BME280;1213;43.206;27.922;2024-03-08T11:22:55;101797.63;;;8.88;100.00
2405;BME280;1213;43.206;27.922;2024-03-08T11:25:38;101796.88;;;9.05;100.00
2405;BME280;1213;43.206;27.922;2024-03-08T11:33:24;101795.19;;;9.04;100.00
2405;BME280;1213;43.206;27.922;2024-03-08T11:35:50;101793.41;;;9.04;100.00
2405;BME280;1213;43.206;27.922;2024-03-08T11:38:16;101786.88;;;9.14;100.00
2405;BME280;1213;43.206;27.922;2024-03-08T11:40:42;101794.00;;;9.11;100.00
2405;BME280;1213;43.206;27.922;2024-03-08T11:43:08;101797.75;;;9.05;100.00
2405;BME280;1213;43.206;27.922;2024-03-08T11:45:36;101795.25;;;9.02;100.00
2405;BME280;1213;43.206;27.922;2024-03-08T11:48:03;101795.44;;;8.98;100.00
2405;BME280;1213;43.206;27.922;2024-03-08T11:50:29;101795.38;;;8.99;100.00
2405;BME280;1213;43.206;27.922;2024-03-08T11:53:00;101803.22;;;8.99;100.00
2405;BME280;1213;43.206;27.922;2024-03-08T11:55:26;101797.09;;;9.00;100.00
2405;BME280;1213;43.206;27.922;2024-03-08T11:58:00;101793.75;;;8.97;100.00
2405;BME280;1213;43.206;27.922;2024-03-08T12:00:26;101795.00;;;9.08;100.00
2405;BME280;1213;43.206;27.922;2024-03-08T12:03:08;101791.88;;;9.00;100.00
2405;BME280;1213;43.206;27.922;2024-03-08T12:05:35;101794.00;;;9.11;100.00
2405;BME280;1213;43.206;27.922;2024-03-08T12:08:05;101798.47;;;9.09;100.00
2405;BME280;1213;43.206;27.922;2024-03-08T12:10:40;101791.66;;;9.05;100.00
2405;BME280;1213;43.206;27.922;2024-03-08T12:13:08;101798.66;;;9.04;100.00
2405;BME280;1213;43.206;27.922;2024-03-08T12:15:40;101796.47;;;9.14;100.00
2405;BME280;1213;43.206;27.922;2024-03-08T12:18:07;101796.72;;;9.28;100.00
2405;BME280;1213;43.206;27.922;2024-03-08T12:20:37;101791.09;;;9.37;100.00
2405;BME280;1213;43.206;27.922;2024-03-08T12:23:06;101795.13;;;9.44;100.00
2405;BME280;1213;43.206;27.922;2024-03-08T12:25:38;101795.47;;;9.37;100.00
2405;BME280;1213;43.206;27.922;2024-03-08T12:28:09;101789.69;;;9.49;100.00
2405;BME280;1213;43.206;27.922;2024-03-08T12:30:48;101797.06;;;9.60;100.00
2405;BME280;1213;43.206;27.922;2024-03-08T12:33:14;101791.94;;;9.57;100.00
2405;BME280;1213;43.206;27.922;2024-03-08T12:35:49;101791.03;;;9.39;100.00
2405;BME280;1213;43.206;27.922;2024-03-08T12:38:15;101793.47;;;9.23;100.00
2405;BME280;1213;43.206;27.922;2024-03-08T12:40:40;101797.53;;;9.30;100.00
2405;BME280;1213;43.206;27.922;2024-03-08T12:43:08;101803.16;;;9.21;100.00
2405;BME280;1213;43.206;27.922;2024-03-08T12:45:34;101798.59;;;9.06;100.00
2405;BME280;1213;43.206;27.922;2024-03-08T12:47:59;101796.47;;;9.14;100.00
2405;BME280;1213;43.206;27.922;2024-03-08T12:50:25;101798.13;;;9.16;100.00
2405;BME280;1213;43.206;27.922;2024-03-08T12:52:51;101800.56;;;9.01;100.00
2405;BME280;1213;43.206;27.922;2024-03-08T12:55:18;101794.75;;;8.94;100.00
2405;BME280;1213;43.206;27.922;2024-03-08T12:57:44;101791.47;;;8.89;100.00
2405;BME280;1213;43.206;27.922;2024-03-08T13:00:13;101794.16;;;8.87;100.00
2405;BME280;1213;43.206;27.922;2024-03-08T13:02:47;101800.63;;;8.79;100.00
2405;BME280;1213;43.206;27.922;2024-03-08T13:05:14;101797.09;;;8.80;100.00
2405;BME280;1213;43.206;27.922;2024-03-08T13:07:41;101799.19;;;8.72;100.00
2405;BME280;1213;43.206;27.922;2024-03-08T13:10:13;101791.75;;;8.61;100.00
2405;BME280;1213;43.206;27.922;2024-03-08T13:12:43;101794.66;;;8.55;100.00